Bill Street, United Kingdom
Current Conditions -  °F | °C
As of 11:50 AM on Monday 22 Dec 2014 (Local Time) from EGMC Reporting Station
Broken Clouds Broken Clouds  
Wind Chill: 14°   Ceiling: 2600
Heat Index: 14°   Visibility: 6mi
Dew Point:   Wind: 23mph
Humidity: 67%   Direction: 240°WSW
Pressure: 30.03"   Gusts: 35mph
Location:  51.41°N, 0.54°E
Report Text: EGMC 221150Z 24020G30KT 9999 BKN026 14/08 Q1017
Loading
Personal Weather Stations






























Interactive Weather Map New forecast layout! Learn more

10-Day Weather Forecast

Advertisements
Track Severe Weather on mobile